Aircraft
UPR1004 PR-BDB B747-400
SAEZ
Minister Pistarini International Airport
SBKP
Viracopos International Airport
Pilot:: Jair
Aircraft:: 747-8i
Alternate: SBGL
Network: ivao
FLIGHT DETAILS
Distance: 928nm Duration 02h 00m
Cruise Speed: Flight Level: 35000
Validation: Validated Type Charter
Flight Fuel
ZFW: 305182
Block Fuel/Initial FOB: 101423
Flight Fuel: 21521
Cargo
Passengers: 410
Cargo: 21300
ROUTE
ROUTE: saez dct sbkp
REMARKS:
DATE
Date: 26-05-06
Departure Time: 2240
Cargo: 21300
FLIGHT DETAILS
Crashed: No
Validator Comments: Validado por Claudenir
Flight Rating: 99
LANDING ANALYSIS
Landing wind: 119º/6 kt
Landing heading: 144º
Landing VS:: -459 ft/min
Landing IAS:: 158 kt
Landing Force G: 1.1 G
Landing Bank: 0
Landing Pitch: -5
Landing Flaps: 100
Navigation Lights: ON
Landing Lights: ON
Beacon Lights: ON
Strobe Lights: ON
viserfly

ALTITUDE CHART

viserfly

MAIN EVENTS

DATE EVENT IAS ALTITUDE
2026-05-05 22:34:00 FLYacars version 1.3.5 0 85
2026-05-05 22:34:01 Aircraft boarding in progress 0 85
2026-05-05 22:34:01 FLAPS 50% 0 85
2026-05-05 22:34:01 Navigation Lights ON 0 85
2026-05-05 22:34:01 Beacon Lights ON 0 85
2026-05-05 22:34:01 Strobe Lights ON 0 85
2026-05-05 22:34:01 Landing Lights ON 0 85
2026-05-05 22:34:01 Starting Engine 4 0 85
2026-05-05 22:34:01 Starting Engine 3 0 85
2026-05-05 22:34:01 Starting Engine 2 0 85
2026-05-05 22:34:01 Starting Engine 1 0 85
2026-05-05 22:35:34 Aircraft taxiing to runway 2 85
2026-05-05 22:35:34 Taxi Lights ON 2 85
2026-05-05 22:40:44 Detected Take-off roll, HDG 120, IAS 196kt, GS 194kt, G-force 0.9g, Pitch -5.0deg, Bank -2.2deg, Wind 089/07kt, Temp 20°C 196 96
2026-05-05 22:40:44 Airborne 196 96
2026-05-05 22:40:52 Gear UP, IAS 217kt, GS 214kt, ALT 159ft AGL 217 229
2026-05-05 22:41:07 FLAPS 33% 239kt, ALT 667ft 239 667
2026-05-05 22:41:38 FLAPS 16% 239kt, ALT 1445ft 239 1445
2026-05-05 22:42:49 FLAPS 0% 250kt, ALT 3246ft 250 3246
2026-05-05 22:45:49 Landing lights ON above 10000fts 261 11003
2026-05-05 22:45:56 Landing Lights OFF 266 11201
2026-05-05 22:46:02 Taxi Lights OFF 271 11319
2026-05-05 23:00:13 Aircraft on Top Of Climb at 35667ft, IAS 293kt, GS 528kt, HDG 47deg, TAT -48deg, WIND 282/62kt 293 35667
2026-05-06 00:04:39 Aircraft on Top Of Descent at 34498ft, IAS 303kt, GS 551kt, HDG 56deg, TAT -46deg, WIND 239/52kt 303 34498
2026-05-06 00:23:27 Simulator Paused 279 15716
2026-05-06 00:23:48 Simulator Un-Paused 279 15716
2026-05-06 00:29:34 Landing Lights ON 258 9909
2026-05-06 00:29:38 Taxi Lights ON 257 9873
2026-05-06 00:30:26 FLAPS 16% 250kt, ALT 9291ft 250 9291
2026-05-06 00:30:51 FLAPS 33% 235kt, ALT 8875ft 235 8875
2026-05-06 00:31:08 FLAPS 50% 225kt, ALT 8579ft 225 8579
2026-05-06 00:31:59 FLAPS 66% 202kt, ALT 7518ft 202 7518
2026-05-06 00:32:46 FLAPS 83% 184kt, ALT 6543ft 184 6543
2026-05-06 00:32:58 Gear DOWN, IAS 180kt, GS 197kt, ALT 4605ft AGL 180 6303
2026-05-06 00:33:40 FLAPS 100% 163kt, ALT 5396ft 163 5396
2026-05-06 00:40:43 Landed at destination with a landing rate of -459fpm, G-force 1.1g, Pitch -4.7deg, Bank 0.0deg, HDG 144deg, IAS 158kt, GS 161kt, Wind 119/06kt, Temp 23°C 158 2169
2026-05-06 00:40:44 Incorrect altimeter settings on landing 158 2169
2026-05-06 00:41:07 FLAPS 83% 67 2166
2026-05-06 00:41:07 FLAPS 33% 65 2166
2026-05-06 00:41:07 FLAPS 0% 64 2166
2026-05-06 00:41:19 Aircraft taxiing to apron 26 2166
2026-05-06 00:45:41 Landing Lights OFF 0 2167
2026-05-06 00:45:49 Taxi Lights OFF 0 2167
2026-05-06 00:45:56 Aircraft at gate/stand, ground services are moving into position, disembarkation has begun. Remaining FOB 79902kg FLYacars v1.3.5 0 2167
viserfly

ACARS DATA

DATE IAS GS ALTITUDE FUEL CONSUMED OAT FLIGHT STATUS
2026-05-05 22:34:31 0 3 85 19 20 PUSHBACK
2026-05-05 22:35:01 0 1 85 32 20 PUSHBACK
2026-05-05 22:35:31 0 4 85 50 20 PUSHBACK
2026-05-05 22:36:01 4 11 85 79 20 TAXI TO RUNWAY
2026-05-05 22:36:31 8 14 85 104 20 TAXI TO RUNWAY
2026-05-05 22:37:01 12 19 85 130 20 TAXI TO RUNWAY
2026-05-05 22:37:31 17 24 85 155 20 TAXI TO RUNWAY
2026-05-05 22:38:01 20 27 85 181 20 TAXI TO RUNWAY
2026-05-05 22:38:31 7 14 85 207 20 TAXI TO RUNWAY
2026-05-05 22:39:01 16 14 88 233 20 TAXI TO RUNWAY
2026-05-05 22:39:31 6 0 88 258 20 TAXI TO RUNWAY
2026-05-05 22:40:01 10 5 88 288 20 TAXI TO RUNWAY
2026-05-05 22:40:31 143 140 91 527 20 TAKEOFF
2026-05-05 22:41:01 232 231 538 825 20 TAKEOFF
2026-05-05 22:41:31 241 240 1246 1011 19 INITIAL CLIMB
2026-05-05 22:42:01 244 250 1966 1189 18 INITIAL CLIMB
2026-05-05 22:42:31 247 261 2729 1371 17 CLIMB
2026-05-05 22:43:01 250 265 3700 1559 15 CLIMB
2026-05-05 22:43:31 249 274 5074 1743 12 CLIMB
2026-05-05 22:44:01 250 282 6441 1923 12 CLIMB
2026-05-05 22:44:31 250 289 7757 2097 10 CLIMB
2026-05-05 22:45:01 251 296 9081 2270 8 CLIMB
2026-05-05 22:45:31 251 303 10410 2439 6 CLIMB
2026-05-05 22:46:01 270 329 11294 2610 4 CLIMB
2026-05-05 22:46:31 295 360 12056 2789 3 CLIMB
2026-05-05 22:47:01 301 379 13387 2971 0 CLIMB
2026-05-05 22:47:31 302 390 14784 3148 -2 CLIMB
2026-05-05 22:48:01 301 398 16102 3320 -5 CLIMB
2026-05-05 22:48:31 301 409 17350 3487 -8 CLIMB
2026-05-05 22:49:01 301 418 18541 3649 -11 CLIMB
2026-05-05 22:49:31 303 426 19698 3806 -13 CLIMB
2026-05-05 22:50:01 303 433 20819 3955 -16 CLIMB
2026-05-05 22:50:31 303 440 21900 4105 -19 CLIMB
2026-05-05 22:51:01 303 447 22914 4250 -22 CLIMB
2026-05-05 22:51:31 303 453 23855 4391 -24 CLIMB
2026-05-05 22:52:01 302 459 24725 4526 -26 CLIMB
2026-05-05 22:52:31 302 465 25561 4661 -27 CLIMB
2026-05-05 22:53:01 303 471 26352 4791 -29 CLIMB
2026-05-05 22:53:31 303 476 27135 4921 -31 CLIMB
2026-05-05 22:54:01 303 481 27898 5050 -32 CLIMB
2026-05-05 22:54:31 303 487 28636 5177 -34 CLIMB
2026-05-05 22:55:01 302 492 29353 5303 -36 CLIMB
2026-05-05 22:55:31 300 498 30008 5426 -38 CLIMB
2026-05-05 22:56:01 301 505 30613 5547 -39 CLIMB
2026-05-05 22:56:31 302 511 31219 5667 -40 CLIMB
2026-05-05 22:57:01 303 517 31814 5786 -41 CLIMB
2026-05-05 22:57:31 303 522 32388 5904 -42 CLIMB
2026-05-05 22:58:01 303 526 32943 6019 -43 CLIMB
2026-05-05 22:58:31 305 530 33492 6134 -44 CLIMB
2026-05-05 22:59:01 304 534 34037 6247 -45 CLIMB
2026-05-05 22:59:31 298 531 34803 6358 -47 CLIMB
2026-05-05 23:00:01 294 530 35482 6464 -48 CLIMB
2026-05-05 23:00:31 291 527 35674 6548 -48 ENROUTE
2026-05-05 23:01:01 290 524 35679 6628 -48 ENROUTE
2026-05-05 23:01:31 290 524 35704 6712 -48 ENROUTE
2026-05-05 23:02:01 290 524 35704 6794 -48 ENROUTE
2026-05-05 23:02:31 290 525 35700 6878 -49 ENROUTE
2026-05-05 23:03:01 290 526 35701 6963 -49 ENROUTE
2026-05-05 23:03:31 290 526 35701 7047 -49 ENROUTE
2026-05-05 23:04:01 290 526 35702 7131 -49 ENROUTE
2026-05-05 23:04:31 291 526 35719 7214 -49 ENROUTE
2026-05-05 23:05:01 291 524 35723 7294 -49 ENROUTE
2026-05-05 23:05:31 290 522 35721 7374 -49 ENROUTE
2026-05-05 23:06:01 290 522 35719 7456 -49 ENROUTE
2026-05-05 23:06:31 290 522 35717 7539 -49 ENROUTE
2026-05-05 23:07:01 290 522 35717 7622 -49 ENROUTE
2026-05-05 23:07:31 290 528 35749 7714 -49 ENROUTE
2026-05-05 23:08:01 291 529 35753 7799 -49 ENROUTE
2026-05-05 23:08:31 291 529 35754 7882 -49 ENROUTE
2026-05-05 23:09:01 291 529 35756 7966 -49 ENROUTE
2026-05-05 23:09:31 291 530 35756 8050 -49 ENROUTE
2026-05-05 23:10:01 291 530 35757 8134 -49 ENROUTE
2026-05-05 23:10:31 292 537 35759 8227 -50 ENROUTE
2026-05-05 23:11:01 292 537 35761 8310 -50 ENROUTE
2026-05-05 23:11:31 292 537 35763 8394 -50 ENROUTE
2026-05-05 23:12:01 293 544 35765 8488 -50 ENROUTE
2026-05-05 23:12:31 293 545 35769 8573 -50 ENROUTE
2026-05-05 23:13:01 293 545 35773 8658 -50 ENROUTE
2026-05-05 23:13:31 294 549 35766 8748 -50 ENROUTE
2026-05-05 23:14:01 296 547 35782 8830 -50 ENROUTE
2026-05-05 23:14:31 293 543 35777 8905 -49 ENROUTE
2026-05-05 23:15:01 292 541 35779 8987 -50 ENROUTE
2026-05-05 23:15:31 292 541 35775 9070 -49 ENROUTE
2026-05-05 23:16:01 288 542 35776 9155 -49 ENROUTE
2026-05-05 23:16:31 293 552 35797 9255 -49 ENROUTE
2026-05-05 23:17:01 293 553 35802 9340 -49 ENROUTE
2026-05-05 23:17:31 293 553 35806 9425 -49 ENROUTE
2026-05-05 23:18:01 294 553 35807 9509 -49 ENROUTE
2026-05-05 23:18:31 294 554 35809 9596 -50 ENROUTE
2026-05-05 23:19:01 294 555 35810 9681 -50 ENROUTE
2026-05-05 23:19:31 294 555 35808 9765 -50 ENROUTE
2026-05-05 23:20:01 294 555 35809 9850 -50 ENROUTE
2026-05-05 23:20:31 294 555 35809 9934 -50 ENROUTE
2026-05-05 23:21:01 294 554 35804 10017 -50 ENROUTE
2026-05-05 23:21:31 294 554 35804 10101 -50 ENROUTE
2026-05-05 23:22:01 294 557 35817 10191 -50 ENROUTE
2026-05-05 23:22:31 294 557 35817 10275 -50 ENROUTE
2026-05-05 23:23:01 294 556 35819 10358 -50 ENROUTE
2026-05-05 23:23:31 294 556 35820 10443 -50 ENROUTE
2026-05-05 23:24:01 295 556 35820 10526 -50 ENROUTE
2026-05-05 23:24:31 293 557 35840 10613 -49 ENROUTE
2026-05-05 23:25:01 295 559 35850 10701 -50 ENROUTE
2026-05-05 23:25:31 295 559 35851 10785 -50 ENROUTE
2026-05-05 23:26:01 295 559 35851 10869 -50 ENROUTE
2026-05-05 23:26:31 295 559 35850 10954 -50 ENROUTE
2026-05-05 23:27:01 295 559 35851 11038 -50 ENROUTE
2026-05-05 23:27:31 296 562 35879 11128 -50 ENROUTE
2026-05-05 23:28:01 294 560 35880 11209 -50 ENROUTE
2026-05-05 23:28:31 294 560 35881 11293 -50 ENROUTE
2026-05-05 23:29:01 294 560 35879 11377 -50 ENROUTE
2026-05-05 23:29:31 294 560 35881 11462 -50 ENROUTE
2026-05-05 23:30:01 293 561 35882 11545 -50 ENROUTE
2026-05-05 23:30:31 294 564 35896 11635 -50 ENROUTE
2026-05-05 23:31:01 295 565 35898 11721 -50 ENROUTE
2026-05-05 23:31:31 296 564 35906 11803 -50 ENROUTE
2026-05-05 23:32:01 295 562 35895 11884 -50 ENROUTE
2026-05-05 23:32:31 295 563 35897 11968 -50 ENROUTE
2026-05-05 23:33:01 296 566 35922 12059 -50 ENROUTE
2026-05-05 23:33:31 296 566 35923 12143 -50 ENROUTE
2026-05-05 23:34:01 296 565 35923 12225 -50 ENROUTE
2026-05-05 23:34:31 295 564 35923 12309 -50 ENROUTE
2026-05-05 23:35:01 295 564 35930 12395 -50 ENROUTE
2026-05-05 23:35:31 295 565 35931 12480 -50 ENROUTE
2026-05-05 23:36:01 295 563 35948 12562 -50 ENROUTE
2026-05-05 23:36:31 295 563 35947 12646 -50 ENROUTE
2026-05-05 23:37:01 295 562 35946 12731 -50 ENROUTE
2026-05-05 23:37:31 295 563 35946 12816 -50 ENROUTE
2026-05-05 23:38:01 295 562 35947 12899 -50 ENROUTE
2026-05-05 23:38:31 295 562 35975 12985 -50 ENROUTE
2026-05-05 23:39:01 295 562 35975 13069 -50 ENROUTE
2026-05-05 23:39:31 295 562 35975 13154 -50 ENROUTE
2026-05-05 23:40:01 296 561 35975 13238 -50 ENROUTE
2026-05-05 23:40:31 295 561 35975 13322 -50 ENROUTE
2026-05-05 23:41:01 295 560 35976 13407 -50 ENROUTE
2026-05-05 23:41:31 295 561 35988 13492 -50 ENROUTE
2026-05-05 23:42:01 295 561 35989 13577 -50 ENROUTE
2026-05-05 23:42:31 295 561 35989 13662 -50 ENROUTE
2026-05-05 23:43:01 295 561 35990 13747 -50 ENROUTE
2026-05-05 23:43:31 295 561 35991 13832 -50 ENROUTE
2026-05-05 23:44:01 296 562 36007 13917 -50 ENROUTE
2026-05-05 23:44:31 295 561 36007 14000 -49 ENROUTE
2026-05-05 23:45:01 295 561 36006 14084 -49 ENROUTE
2026-05-05 23:45:31 295 560 36017 14169 -49 ENROUTE
2026-05-05 23:46:01 295 561 36017 14254 -49 ENROUTE
2026-05-05 23:46:31 295 560 36018 14338 -50 ENROUTE
2026-05-05 23:47:01 295 560 36018 14422 -50 ENROUTE
2026-05-05 23:47:31 295 560 36017 14507 -50 ENROUTE
2026-05-05 23:48:01 296 560 36019 14591 -50 ENROUTE
2026-05-05 23:48:31 296 560 36020 14674 -50 ENROUTE
2026-05-05 23:49:01 294 557 36016 14754 -50 ENROUTE
2026-05-05 23:49:31 295 559 36034 14841 -49 ENROUTE
2026-05-05 23:50:01 294 559 36034 14925 -49 ENROUTE
2026-05-05 23:50:31 294 559 36034 15009 -49 ENROUTE
2026-05-05 23:51:01 294 559 36034 15092 -49 ENROUTE
2026-05-05 23:51:31 294 560 36035 15179 -49 ENROUTE
2026-05-05 23:52:01 294 559 36043 15263 -49 ENROUTE
2026-05-05 23:52:31 295 561 36045 15350 -49 ENROUTE
2026-05-05 23:53:01 295 561 36045 15434 -49 ENROUTE
2026-05-05 23:53:31 295 561 36046 15518 -49 ENROUTE
2026-05-05 23:54:01 295 561 36047 15603 -49 ENROUTE
2026-05-05 23:54:31 295 561 36044 15687 -49 ENROUTE
2026-05-05 23:55:01 295 560 36049 15771 -49 ENROUTE
2026-05-05 23:55:31 295 561 36049 15856 -49 ENROUTE
2026-05-05 23:56:01 295 561 36048 15941 -49 ENROUTE
2026-05-05 23:56:31 295 561 36050 16026 -49 ENROUTE
2026-05-05 23:57:01 296 561 36050 16110 -49 ENROUTE
2026-05-05 23:57:31 295 560 36080 16195 -49 ENROUTE
2026-05-05 23:58:01 295 561 36079 16281 -49 ENROUTE
2026-05-05 23:58:31 295 561 36080 16366 -49 ENROUTE
2026-05-05 23:59:01 296 561 36080 16450 -49 ENROUTE
2026-05-05 23:59:31 295 561 36081 16533 -49 ENROUTE
2026-05-06 00:00:01 295 560 36081 16617 -49 ENROUTE
2026-05-06 00:00:31 295 562 36091 16705 -49 ENROUTE
2026-05-06 00:01:01 295 562 36092 16789 -49 ENROUTE
2026-05-06 00:01:31 295 562 36092 16873 -49 ENROUTE
2026-05-06 00:02:01 295 562 36092 16958 -49 ENROUTE
2026-05-06 00:02:31 295 562 36091 17043 -49 ENROUTE
2026-05-06 00:03:01 295 563 36091 17129 -49 ENROUTE
2026-05-06 00:03:31 298 560 35616 17188 -48 DESCENT
2026-05-06 00:04:01 301 556 35127 17245 -47 DESCENT
2026-05-06 00:04:31 303 552 34641 17304 -46 DESCENT
2026-05-06 00:05:01 305 551 34158 17369 -45 DESCENT
2026-05-06 00:05:31 307 550 33676 17436 -44 DESCENT
2026-05-06 00:06:01 308 546 33189 17498 -42 DESCENT
2026-05-06 00:06:31 309 542 32699 17561 -41 DESCENT
2026-05-06 00:07:01 309 538 32206 17623 -40 DESCENT
2026-05-06 00:07:31 309 534 31712 17685 -39 DESCENT
2026-05-06 00:08:01 309 530 31215 17747 -38 DESCENT
2026-05-06 00:08:31 310 526 30720 17809 -36 DESCENT
2026-05-06 00:09:01 310 521 30224 17869 -35 DESCENT
2026-05-06 00:09:31 310 516 29730 17930 -33 DESCENT
2026-05-06 00:10:01 310 512 29232 17990 -32 DESCENT
2026-05-06 00:10:31 310 507 28737 18050 -31 DESCENT
2026-05-06 00:11:01 310 503 28238 18111 -30 DESCENT
2026-05-06 00:11:31 310 498 27739 18172 -28 DESCENT
2026-05-06 00:12:01 310 493 27243 18233 -27 DESCENT
2026-05-06 00:12:31 310 489 26745 18293 -25 DESCENT
2026-05-06 00:13:01 310 485 26249 18354 -24 DESCENT
2026-05-06 00:13:31 310 481 25749 18414 -23 DESCENT
2026-05-06 00:14:01 310 477 25251 18475 -21 DESCENT
2026-05-06 00:14:31 309 472 24750 18535 -20 DESCENT
2026-05-06 00:15:01 310 469 24255 18596 -19 DESCENT
2026-05-06 00:15:31 310 464 23758 18656 -18 DESCENT
2026-05-06 00:16:01 310 460 23259 18717 -17 DESCENT
2026-05-06 00:16:31 310 456 22763 18777 -16 DESCENT
2026-05-06 00:17:01 310 452 22264 18837 -14 DESCENT
2026-05-06 00:17:31 310 448 21766 18898 -13 DESCENT
2026-05-06 00:18:01 310 444 21268 18959 -12 DESCENT
2026-05-06 00:18:31 310 440 20768 19020 -11 DESCENT
2026-05-06 00:19:01 310 437 20270 19081 -10 DESCENT
2026-05-06 00:19:31 310 433 19773 19142 -8 DESCENT
2026-05-06 00:20:01 310 429 19275 19203 -7 DESCENT
2026-05-06 00:20:31 310 426 18777 19265 -6 DESCENT
2026-05-06 00:21:01 308 419 18275 19317 -5 DESCENT
2026-05-06 00:21:31 300 405 17757 19346 -4 DESCENT
2026-05-06 00:22:01 294 393 17229 19374 -3 DESCENT
2026-05-06 00:22:31 288 382 16700 19401 -2 DESCENT
2026-05-06 00:23:01 283 372 16173 19428 -1 DESCENT
2026-05-06 00:23:31 279 365 15716 19451 0 DESCENT
2026-05-06 00:24:01 278 361 15500 19462 0 DESCENT
2026-05-06 00:24:31 274 353 14983 19488 1 DESCENT
2026-05-06 00:25:01 270 346 14466 19514 2 DESCENT
2026-05-06 00:25:31 269 339 13951 19540 2 DESCENT
2026-05-06 00:26:01 269 333 13443 19566 2 DESCENT
2026-05-06 00:26:31 267 327 12934 19592 3 DESCENT
2026-05-06 00:27:01 265 322 12425 19618 4 DESCENT
2026-05-06 00:27:31 265 317 11917 19644 4 DESCENT
2026-05-06 00:28:01 264 313 11411 19670 5 DESCENT
2026-05-06 00:28:31 263 309 10904 19697 5 DESCENT
2026-05-06 00:29:01 263 305 10401 19723 6 DESCENT
2026-05-06 00:29:31 260 300 9943 19750 7 DESCENT
2026-05-06 00:30:01 251 289 9663 19777 8 DESCENT
2026-05-06 00:30:31 249 284 9220 19803 9 DESCENT
2026-05-06 00:31:01 229 259 8719 19829 10 DESCENT
2026-05-06 00:31:31 212 238 8138 19854 11 DESCENT
2026-05-06 00:32:01 202 225 7488 19877 12 DESCENT
2026-05-06 00:32:31 188 208 6884 19899 14 DESCENT
2026-05-06 00:33:01 180 196 6253 19921 15 DESCENT
2026-05-06 00:33:31 168 181 5571 19951 17 DESCENT
2026-05-06 00:34:01 170 184 5464 20056 17 ENROUTE
2026-05-06 00:34:31 175 188 5435 20179 17 DESCENT
2026-05-06 00:35:01 163 172 4922 20233 19 DESCENT
2026-05-06 00:35:31 153 161 4304 20259 20 APPROACH
2026-05-06 00:36:01 159 164 3986 20342 21 APPROACH
2026-05-06 00:36:31 171 174 4130 20496 21 APPROACH
2026-05-06 00:37:01 171 173 4175 20617 21 APPROACH
2026-05-06 00:37:31 172 173 4110 20732 21 APPROACH
2026-05-06 00:38:01 171 172 4116 20849 21 APPROACH
2026-05-06 00:38:31 170 171 3977 20953 21 APPROACH
2026-05-06 00:39:01 165 166 3531 21020 22 APPROACH
2026-05-06 00:39:31 166 164 3096 21094 23 APPROACH
2026-05-06 00:40:01 167 172 2677 21181 23 ON FINAL
2026-05-06 00:40:31 165 169 2242 21247 23 ON FINAL
2026-05-06 00:41:01 89 87 2167 21295 23 ON FINAL
2026-05-06 00:41:31 0 4 2166 21317 23 TAXI TO APRON
2026-05-06 00:42:01 9 16 2166 21352 23 TAXI TO APRON
2026-05-06 00:42:31 20 28 2167 21385 23 TAXI TO APRON
2026-05-06 00:43:01 22 30 2166 21408 23 TAXI TO APRON
2026-05-06 00:43:31 19 27 2167 21431 23 TAXI TO APRON
2026-05-06 00:44:01 0 2 2167 21455 23 TAXI TO APRON
2026-05-06 00:44:31 4 11 2167 21483 23 TAXI TO APRON
2026-05-06 00:45:01 3 5 2167 21506 23 TAXI TO APRON
2026-05-06 00:45:31 0 0 2167 21521 23 TAXI TO APRON
  • Join our VA!

    It has been 11 years of great learning, friendships, and stories.

  • Sign up now!